Time;durP1;ratioP1;P1;durP2;ratioP2;P2;SDS_P1;SDS_P2;PMS_P1;PMS_P2;Temp;Humidity;BMP_temperature;BMP_pressure;BME280_temperature;BME280_humidity;BME280_pressure;Samples;Min_cycle;Max_cycle;Signal;HPM_P1;HPM_P2
2020/05/14 00:01:43;;;;;;;1.80;1.70;;;;;;;18.66;42.28;100093.58;;;;-52
2020/05/14 00:04:43;;;;;;;1.99;1.79;;;;;;;18.66;42.29;100092.56;;;;-51
2020/05/14 00:07:43;;;;;;;1.70;1.60;;;;;;;18.66;42.30;100095.31;;;;-51
2020/05/14 00:10:43;;;;;;;1.70;1.60;;;;;;;18.65;42.30;100093.93;;;;-51
2020/05/14 00:13:43;;;;;;;1.80;1.70;;;;;;;18.65;42.28;100097.55;;;;-51
2020/05/14 00:16:43;;;;;;;1.80;1.70;;;;;;;18.65;42.30;100105.73;;;;-51
2020/05/14 00:19:43;;;;;;;2.10;1.90;;;;;;;18.64;42.32;100103.52;;;;-51
2020/05/14 00:22:43;;;;;;;1.93;1.71;;;;;;;18.63;42.29;100107.83;;;;-51
2020/05/14 00:25:43;;;;;;;1.79;1.69;;;;;;;18.63;42.33;100112.68;;;;-51
2020/05/14 00:28:43;;;;;;;1.91;1.80;;;;;;;18.63;42.33;100111.61;;;;-51
2020/05/14 00:31:43;;;;;;;2.04;1.83;;;;;;;18.62;42.32;100114.08;;;;-51
2020/05/14 00:34:43;;;;;;;1.80;1.70;;;;;;;18.61;42.35;100117.38;;;;-51
2020/05/14 00:37:43;;;;;;;1.72;1.62;;;;;;;18.62;42.37;100123.00;;;;-51
2020/05/14 00:40:43;;;;;;;1.83;1.72;;;;;;;18.60;42.34;100121.25;;;;-51
2020/05/14 00:43:44;;;;;;;1.75;1.65;;;;;;;18.60;42.33;100124.86;;;;-51
2020/05/14 00:46:43;;;;;;;1.83;1.73;;;;;;;18.59;42.36;100127.83;;;;-51
2020/05/14 00:49:43;;;;;;;1.73;1.63;;;;;;;18.60;42.36;100134.69;;;;-52
2020/05/14 00:52:43;;;;;;;1.82;1.72;;;;;;;18.59;42.36;100132.34;;;;-53
2020/05/14 00:55:43;;;;;;;2.00;1.80;;;;;;;18.58;42.39;100139.99;;;;-51
2020/05/14 00:58:43;;;;;;;1.81;1.71;;;;;;;18.58;42.35;100140.06;;;;-53
2020/05/14 01:01:43;;;;;;;1.79;1.65;;;;;;;18.58;42.36;100139.06;;;;-51
2020/05/14 01:04:51;;;;;;;1.85;1.75;;;;;;;18.57;42.34;100139.45;;;;-52
2020/05/14 02:41:55;;;;;;;1.96;1.81;;;;;;;18.47;42.10;100221.45;;;;-51
2020/05/14 02:44:55;;;;;;;1.80;1.70;;;;;;;18.46;42.06;100223.25;;;;-52
2020/05/14 02:47:55;;;;;;;2.00;1.90;;;;;;;18.47;42.11;100229.30;;;;-51
2020/05/14 02:50:55;;;;;;;2.08;1.86;;;;;;;18.46;42.07;100229.49;;;;-52
2020/05/14 02:53:55;;;;;;;1.98;1.80;;;;;;;18.45;42.05;100233.13;;;;-51
2020/05/14 02:56:55;;;;;;;2.22;1.90;;;;;;;18.43;42.05;100230.80;;;;-52
2020/05/14 02:59:58;;;;;;;1.88;1.78;;;;;;;18.44;42.08;100230.01;;;;-53
2020/05/14 03:03:05;;;;;;;1.83;1.73;;;;;;;18.44;42.05;100235.09;;;;-51
2020/05/14 03:06:00;;;;;;;1.95;1.79;;;;;;;18.43;42.05;100241.56;;;;-52
2020/05/14 03:08:57;;;;;;;2.14;1.94;;;;;;;18.42;42.03;100243.86;;;;-51
2020/05/14 03:11:55;;;;;;;1.81;1.71;;;;;;;18.41;42.08;100245.77;;;;-52
2020/05/14 03:14:55;;;;;;;3.11;1.99;;;;;;;18.42;42.07;100252.05;;;;-53
2020/05/14 03:17:55;;;;;;;2.05;1.85;;;;;;;18.41;42.09;100254.78;;;;-51
2020/05/14 03:20:55;;;;;;;1.83;1.73;;;;;;;18.40;42.07;100264.27;;;;-52
2020/05/14 03:29:21;;;;;;;2.00;1.82;;;;;;;18.38;42.06;100272.55;;;;-51
2020/05/14 03:31:58;;;;;;;1.99;1.85;;;;;;;18.38;42.13;100276.05;;;;-52
2020/05/14 03:34:55;;;;;;;1.97;1.84;;;;;;;18.39;42.04;100284.52;;;;-53
2020/05/14 03:37:55;;;;;;;1.86;1.76;;;;;;;18.38;42.08;100289.03;;;;-52
2020/05/14 03:40:55;;;;;;;1.94;1.82;;;;;;;18.38;42.13;100289.09;;;;-51
2020/05/14 03:52:19;;;;;;;1.80;1.70;;;;;;;18.42;41.93;100300.72;;;;-51
2020/05/14 03:54:56;;;;;;;1.69;1.59;;;;;;;18.44;41.90;100304.64;;;;-52
2020/05/14 03:57:55;;;;;;;1.81;1.71;;;;;;;18.47;41.83;100307.96;;;;-51
2020/05/14 04:03:55;;;;;;;1.70;1.60;;;;;;;18.53;41.96;100320.89;;;;-51
2020/05/14 04:06:55;;;;;;;2.10;1.59;;;;;;;18.56;42.01;100326.72;;;;-52
2020/05/14 04:09:55;;;;;;;1.78;1.68;;;;;;;18.60;42.03;100334.05;;;;-51
2020/05/14 04:12:54;;;;;;;1.50;1.40;;;;;;;18.63;42.06;100338.23;;;;-52
2020/05/14 04:15:55;;;;;;;1.51;1.41;;;;;;;18.66;42.15;100339.78;;;;-51
2020/05/14 04:18:55;;;;;;;1.60;1.50;;;;;;;18.69;42.24;100336.47;;;;-51
2020/05/14 04:21:55;;;;;;;1.69;1.59;;;;;;;18.74;42.28;100342.72;;;;-51
2020/05/14 04:24:55;;;;;;;1.95;1.52;;;;;;;18.77;42.23;100345.53;;;;-51
2020/05/14 04:27:55;;;;;;;1.96;1.50;;;;;;;18.80;42.28;100345.50;;;;-51
2020/05/14 04:30:55;;;;;;;1.60;1.50;;;;;;;18.84;42.30;100349.50;;;;-51
2020/05/14 04:33:55;;;;;;;1.59;1.49;;;;;;;18.87;42.32;100350.67;;;;-53
2020/05/14 04:36:55;;;;;;;1.62;1.50;;;;;;;18.90;42.35;100346.69;;;;-50
2020/05/14 04:39:55;;;;;;;1.61;1.38;;;;;;;18.92;42.40;100350.80;;;;-51
2020/05/14 04:42:55;;;;;;;1.50;1.40;;;;;;;18.97;42.31;100355.94;;;;-51
2020/05/14 04:45:55;;;;;;;1.50;1.40;;;;;;;18.99;42.47;100362.50;;;;-52
2020/05/14 04:48:55;;;;;;;1.54;1.44;;;;;;;19.03;42.44;100364.41;;;;-51
2020/05/14 04:51:55;;;;;;;1.95;1.38;;;;;;;19.07;42.45;100366.42;;;;-53
2020/05/14 04:54:55;;;;;;;2.12;1.53;;;;;;;19.10;42.55;100369.23;;;;-51
2020/05/14 04:57:55;;;;;;;1.50;1.40;;;;;;;19.12;42.44;100379.65;;;;-51
2020/05/14 05:04:08;;;;;;;1.50;1.40;;;;;;;19.16;42.40;100378.19;;;;-51
2020/05/14 05:06:59;;;;;;;1.50;1.40;;;;;;;19.19;42.46;100380.39;;;;-51
2020/05/14 05:10:11;;;;;;;1.44;1.34;;;;;;;19.21;42.40;100381.15;;;;-52
2020/05/14 05:17:00;;;;;;;1.43;1.33;;;;;;;19.24;42.35;100388.99;;;;-51
2020/05/14 05:26:55;;;;;;;1.51;1.38;;;;;;;19.29;42.33;100395.91;;;;-53
2020/05/14 05:29:55;;;;;;;1.50;1.40;;;;;;;19.32;42.21;100397.27;;;;-51
2020/05/14 05:32:55;;;;;;;1.50;1.40;;;;;;;19.33;42.32;100397.48;;;;-51
2020/05/14 05:35:55;;;;;;;1.83;1.51;;;;;;;19.34;42.24;100400.55;;;;-51
2020/05/14 05:38:55;;;;;;;1.50;1.40;;;;;;;19.35;42.26;100399.48;;;;-51
2020/05/14 05:41:55;;;;;;;1.53;1.43;;;;;;;19.36;42.16;100402.81;;;;-51
2020/05/14 05:44:55;;;;;;;1.49;1.39;;;;;;;19.37;42.16;100402.86;;;;-53
2020/05/14 05:47:55;;;;;;;1.50;1.40;;;;;;;19.38;42.12;100410.88;;;;-51
2020/05/14 05:50:55;;;;;;;2.02;1.50;;;;;;;19.39;42.05;100411.88;;;;-52
2020/05/14 05:53:55;;;;;;;1.56;1.46;;;;;;;19.40;42.08;100414.17;;;;-61
2020/05/14 05:56:55;;;;;;;3.11;1.64;;;;;;;19.40;42.00;100419.47;;;;-61
2020/05/14 05:59:55;;;;;;;1.59;1.49;;;;;;;19.39;41.98;100423.81;;;;-61
2020/05/14 06:02:55;;;;;;;1.79;1.40;;;;;;;19.40;42.02;100430.58;;;;-61
2020/05/14 06:05:55;;;;;;;1.60;1.39;;;;;;;19.40;41.95;100435.88;;;;-61
2020/05/14 06:10:55;;;;;;;1.45;1.35;;;;;;;19.39;41.93;100437.11;;;;-61
2020/05/14 06:14:55;;;;;;;1.50;1.40;;;;;;;19.37;41.89;100439.63;;;;-61
2020/05/14 06:19:55;;;;;;;1.61;1.50;;;;;;;19.38;41.88;100441.31;;;;-61
2020/05/14 06:34:16;;;;;;;1.85;1.34;;;;;;;19.34;41.77;100453.73;;;;-61
2020/05/14 06:46:32;;;;;;;2.04;1.40;;;;;;;19.31;41.72;100459.52;;;;-55
2020/05/14 06:50:29;;;;;;;1.57;1.47;;;;;;;19.31;41.69;100462.77;;;;-56
2020/05/14 06:54:26;;;;;;;1.49;1.39;;;;;;;19.30;41.73;100466.84;;;;-56
2020/05/14 06:58:28;;;;;;;1.55;1.45;;;;;;;19.30;41.69;100468.92;;;;-55
2020/05/14 07:09:27;;;;;;;2.01;1.41;;;;;;;19.30;41.64;100465.45;;;;-56
2020/05/14 07:16:40;;;;;;;1.56;1.46;;;;;;;19.32;41.67;100481.77;;;;-56
2020/05/14 07:19:21;;;;;;;1.52;1.42;;;;;;;19.33;41.67;100485.57;;;;-56
2020/05/14 07:22:21;;;;;;;1.55;1.40;;;;;;;19.33;41.65;100489.75;;;;-56
2020/05/14 07:25:21;;;;;;;1.46;1.36;;;;;;;19.34;41.60;100487.95;;;;-56
2020/05/14 07:28:21;;;;;;;1.41;1.31;;;;;;;19.34;41.59;100489.41;;;;-56
2020/05/14 07:31:21;;;;;;;1.81;1.47;;;;;;;19.35;41.63;100488.27;;;;-54
2020/05/14 07:34:21;;;;;;;1.42;1.32;;;;;;;19.36;41.65;100485.44;;;;-53
2020/05/14 07:37:21;;;;;;;1.50;1.40;;;;;;;19.37;41.64;100486.81;;;;-53
2020/05/14 07:40:21;;;;;;;10.57;2.48;;;;;;;19.35;41.40;100488.51;;;;-51
2020/05/14 07:43:21;;;;;;;4.73;4.25;;;;;;;19.22;40.53;100490.69;;;;-53
2020/05/14 07:47:12;;;;;;;6.04;3.58;;;;;;;19.23;40.99;100484.21;;;;-57
2020/05/14 07:49:21;;;;;;;4.21;3.20;;;;;;;19.28;41.23;100488.80;;;;-60
2020/05/14 07:52:21;;;;;;;2.91;2.61;;;;;;;19.33;41.40;100485.39;;;;-58
2020/05/14 07:55:21;;;;;;;3.35;2.19;;;;;;;19.35;41.49;100486.16;;;;-59
2020/05/14 07:58:21;;;;;;;2.53;1.93;;;;;;;19.38;41.50;100485.90;;;;-52
2020/05/14 08:01:21;;;;;;;4.07;1.94;;;;;;;19.41;42.09;100493.23;;;;-59
2020/05/14 08:04:21;;;;;;;8.34;2.41;;;;;;;19.44;41.53;100490.55;;;;-52
2020/05/14 08:07:21;;;;;;;5.04;2.27;;;;;;;19.44;41.65;100488.64;;;;-56
2020/05/14 08:10:21;;;;;;;2.97;2.40;;;;;;;19.43;41.64;100487.70;;;;-56
2020/05/14 08:13:21;;;;;;;4.38;2.33;;;;;;;19.44;41.54;100489.31;;;;-57
2020/05/14 08:16:21;;;;;;;6.23;2.40;;;;;;;19.45;41.47;100486.67;;;;-54
2020/05/14 08:19:21;;;;;;;5.27;2.26;;;;;;;19.46;41.28;100486.95;;;;-54
2020/05/14 08:22:21;;;;;;;5.09;2.30;;;;;;;19.45;41.33;100485.52;;;;-48
2020/05/14 08:25:21;;;;;;;4.62;2.35;;;;;;;19.46;41.40;100481.59;;;;-53
2020/05/14 08:28:21;;;;;;;5.04;2.18;;;;;;;19.45;41.38;100484.17;;;;-54
2020/05/14 08:31:21;;;;;;;7.69;2.26;;;;;;;19.46;41.23;100483.55;;;;-47
2020/05/14 08:34:21;;;;;;;7.94;2.25;;;;;;;19.48;41.24;100479.00;;;;-53
2020/05/14 08:37:21;;;;;;;7.69;2.01;;;;;;;19.47;41.33;100476.72;;;;-53
2020/05/14 08:40:21;;;;;;;5.46;1.93;;;;;;;19.49;41.46;100483.73;;;;-50
2020/05/14 08:43:21;;;;;;;4.58;2.25;;;;;;;19.48;41.44;100482.30;;;;-54
2020/05/14 08:46:21;;;;;;;2.22;1.72;;;;;;;19.49;41.40;100480.49;;;;-51
2020/05/14 08:49:21;;;;;;;4.00;2.01;;;;;;;19.49;41.46;100483.18;;;;-52
2020/05/14 08:55:21;;;;;;;3.71;1.93;;;;;;;19.49;41.64;100482.10;;;;-53
2020/05/14 08:58:21;;;;;;;4.34;2.02;;;;;;;19.49;41.50;100479.38;;;;-54
2020/05/14 09:01:21;;;;;;;4.12;1.83;;;;;;;19.49;41.48;100479.66;;;;-53
2020/05/14 09:04:21;;;;;;;4.19;2.00;;;;;;;19.49;41.51;100474.80;;;;-53
2020/05/14 09:07:21;;;;;;;2.36;1.91;;;;;;;19.50;41.38;100475.74;;;;-57
2020/05/14 09:10:21;;;;;;;2.00;1.81;;;;;;;19.50;41.42;100474.57;;;;-51
2020/05/14 09:13:21;;;;;;;2.54;2.01;;;;;;;19.49;41.40;100479.09;;;;-55
2020/05/14 09:16:21;;;;;;;2.31;1.87;;;;;;;19.50;41.44;100475.08;;;;-51
2020/05/14 09:19:21;;;;;;;3.54;2.23;;;;;;;19.50;41.46;100478.92;;;;-52
2020/05/14 09:22:21;;;;;;;3.64;2.07;;;;;;;19.49;41.46;100478.48;;;;-52
2020/05/14 09:25:21;;;;;;;3.93;1.85;;;;;;;19.49;41.48;100480.83;;;;-53
2020/05/14 09:28:21;;;;;;;4.01;2.00;;;;;;;19.49;41.55;100480.72;;;;-53
2020/05/14 09:31:21;;;;;;;5.39;1.88;;;;;;;19.49;41.65;100478.66;;;;-57
2020/05/14 09:34:21;;;;;;;2.22;1.97;;;;;;;19.49;41.63;100479.16;;;;-51
2020/05/14 09:37:29;;;;;;;3.74;2.00;;;;;;;19.48;41.58;100477.77;;;;-57
2020/05/14 09:40:21;;;;;;;3.05;1.88;;;;;;;19.48;41.58;100472.41;;;;-54
2020/05/14 09:43:21;;;;;;;3.28;1.87;;;;;;;19.47;41.59;100466.16;;;;-51
2020/05/14 09:46:28;;;;;;;3.10;1.97;;;;;;;19.48;41.56;100467.11;;;;-53
2020/05/14 09:49:27;;;;;;;2.41;1.93;;;;;;;19.48;41.50;100468.83;;;;-52
2020/05/14 09:52:35;;;;;;;2.33;1.93;;;;;;;19.47;41.47;100465.05;;;;-51
2020/05/14 09:59:43;;;;;;;2.53;1.97;;;;;;;19.43;41.47;100467.09;;;;-58
2020/05/14 10:05:35;;;;;;;2.13;1.90;;;;;;;19.41;41.45;100466.47;;;;-57
2020/05/14 10:08:25;;;;;;;2.99;1.87;;;;;;;19.40;41.39;100469.60;;;;-56
2020/05/14 10:11:25;;;;;;;2.75;1.89;;;;;;;19.38;41.43;100474.17;;;;-55
2020/05/14 10:14:21;;;;;;;2.19;1.95;;;;;;;19.38;41.36;100478.33;;;;-58
2020/05/14 10:20:26;;;;;;;2.28;1.93;;;;;;;19.35;41.38;100472.50;;;;-56
2020/05/14 10:23:33;;;;;;;1.97;1.79;;;;;;;19.33;41.29;100472.78;;;;-55
2020/05/14 10:26:32;;;;;;;2.25;1.90;;;;;;;19.34;41.32;100473.12;;;;-58
2020/05/14 10:29:31;;;;;;;2.33;1.93;;;;;;;19.32;41.35;100473.80;;;;-55
2020/05/14 10:32:30;;;;;;;2.39;1.88;;;;;;;19.31;41.34;100475.43;;;;-55
2020/05/14 10:35:43;;;;;;;2.22;1.90;;;;;;;19.30;41.28;100472.54;;;;-57
2020/05/14 10:42:21;;;;;;;2.15;1.88;;;;;;;19.28;41.34;100466.09;;;;-56
2020/05/14 10:45:21;;;;;;;2.39;1.80;;;;;;;19.28;41.32;100468.66;;;;-57
2020/05/14 10:48:21;;;;;;;3.03;1.82;;;;;;;19.27;41.35;100461.95;;;;-58
2020/05/14 10:51:21;;;;;;;2.08;1.87;;;;;;;19.26;41.30;100466.77;;;;-55
2020/05/14 10:54:21;;;;;;;3.38;1.85;;;;;;;19.25;41.33;100463.20;;;;-56
2020/05/14 10:57:21;;;;;;;2.07;1.69;;;;;;;19.25;41.31;100458.35;;;;-58
2020/05/14 11:00:21;;;;;;;1.89;1.71;;;;;;;19.23;41.30;100454.41;;;;-47
2020/05/14 11:03:21;;;;;;;1.99;1.85;;;;;;;19.23;41.33;100457.59;;;;-48
2020/05/14 11:06:21;;;;;;;1.92;1.77;;;;;;;19.22;41.34;100459.11;;;;-48
2020/05/14 11:09:21;;;;;;;2.85;1.85;;;;;;;19.22;41.33;100462.73;;;;-48
2020/05/14 11:12:21;;;;;;;2.03;1.83;;;;;;;19.21;41.28;100462.86;;;;-48
2020/05/14 11:15:21;;;;;;;2.01;1.80;;;;;;;19.21;41.35;100456.66;;;;-49
2020/05/14 11:18:21;;;;;;;1.85;1.74;;;;;;;19.20;41.36;100460.70;;;;-48
2020/05/14 11:21:21;;;;;;;2.06;1.83;;;;;;;19.20;41.29;100458.69;;;;-47
2020/05/14 11:24:21;;;;;;;1.85;1.70;;;;;;;19.19;41.27;100448.97;;;;-48
2020/05/14 11:27:21;;;;;;;1.82;1.72;;;;;;;19.18;41.33;100448.25;;;;-49
2020/05/14 11:30:21;;;;;;;2.15;1.88;;;;;;;19.18;41.34;100451.67;;;;-59
2020/05/14 11:33:21;;;;;;;1.99;1.83;;;;;;;19.19;41.51;100451.27;;;;-57
2020/05/14 11:36:21;;;;;;;1.88;1.78;;;;;;;19.20;41.49;100450.08;;;;-53
2020/05/14 11:39:21;;;;;;;1.91;1.60;;;;;;;19.20;41.57;100448.24;;;;-54
2020/05/14 11:42:21;;;;;;;2.47;1.79;;;;;;;19.22;41.73;100445.39;;;;-56
2020/05/14 11:45:21;;;;;;;2.25;1.81;;;;;;;19.22;41.72;100439.30;;;;-56
2020/05/14 11:48:21;;;;;;;1.84;1.71;;;;;;;19.23;41.73;100438.91;;;;-57
2020/05/14 11:51:21;;;;;;;1.91;1.70;;;;;;;19.22;41.73;100435.78;;;;-50
2020/05/14 11:54:21;;;;;;;1.93;1.70;;;;;;;19.24;41.67;100434.69;;;;-48
2020/05/14 11:57:21;;;;;;;2.17;1.81;;;;;;;19.24;41.75;100429.56;;;;-49
2020/05/14 12:00:21;;;;;;;2.00;1.80;;;;;;;19.23;41.84;100428.96;;;;-58
2020/05/14 12:03:21;;;;;;;2.32;1.74;;;;;;;19.23;41.80;100428.02;;;;-57
2020/05/14 12:06:21;;;;;;;1.93;1.77;;;;;;;19.22;41.76;100427.98;;;;-57
2020/05/14 12:09:21;;;;;;;1.80;1.70;;;;;;;19.21;41.76;100420.67;;;;-58
2020/05/14 12:12:37;;;;;;;2.42;1.72;;;;;;;19.21;41.69;100418.55;;;;-58
2020/05/14 12:15:25;;;;;;;5.73;1.79;;;;;;;19.20;41.71;100410.80;;;;-57
2020/05/14 12:18:21;;;;;;;1.81;1.70;;;;;;;19.19;41.66;100406.00;;;;-58
2020/05/14 12:25:37;;;;;;;2.72;1.71;;;;;;;19.18;41.57;100398.72;;;;-57
2020/05/14 12:28:37;;;;;;;2.01;1.82;;;;;;;19.16;41.64;100402.65;;;;-53
2020/05/14 12:31:37;;;;;;;2.07;1.69;;;;;;;19.18;41.76;100401.61;;;;-55
2020/05/14 12:34:37;;;;;;;1.80;1.70;;;;;;;19.18;41.74;100397.83;;;;-52
2020/05/14 12:37:37;;;;;;;1.71;1.60;;;;;;;19.19;41.76;100394.05;;;;-53
2020/05/14 12:40:37;;;;;;;2.38;1.73;;;;;;;19.19;41.74;100398.65;;;;-52
2020/05/14 12:43:37;;;;;;;3.55;1.80;;;;;;;19.20;41.76;100395.73;;;;-56
2020/05/14 12:46:37;;;;;;;2.59;1.74;;;;;;;19.19;41.76;100394.05;;;;-55
2020/05/14 12:49:37;;;;;;;2.29;1.79;;;;;;;19.20;41.80;100385.13;;;;-53
2020/05/14 12:52:37;;;;;;;3.19;1.89;;;;;;;19.20;41.83;100389.05;;;;-53
2020/05/14 12:55:37;;;;;;;4.14;1.79;;;;;;;19.21;41.79;100384.90;;;;-51
2020/05/14 12:58:37;;;;;;;2.81;1.71;;;;;;;19.20;41.81;100381.34;;;;-52
2020/05/14 13:01:37;;;;;;;5.09;1.75;;;;;;;19.21;41.82;100380.16;;;;-52
2020/05/14 13:04:37;;;;;;;2.47;1.70;;;;;;;19.21;41.84;100371.34;;;;-54
2020/05/14 13:07:37;;;;;;;2.21;1.75;;;;;;;19.21;41.98;100360.56;;;;-52
2020/05/14 13:15:56;;;;;;;2.17;1.74;;;;;;;19.22;41.86;100354.98;;;;-56
2020/05/14 13:18:49;;;;;;;3.65;1.72;;;;;;;19.22;41.82;100357.59;;;;-52
2020/05/14 13:21:41;;;;;;;1.85;1.73;;;;;;;19.22;41.79;100349.63;;;;-58
2020/05/14 13:24:37;;;;;;;1.71;1.60;;;;;;;19.23;41.81;100357.03;;;;-55
2020/05/14 13:27:37;;;;;;;2.47;1.95;;;;;;;19.23;41.80;100357.36;;;;-57
2020/05/14 13:30:37;;;;;;;2.63;1.85;;;;;;;19.23;41.76;100356.63;;;;-55
2020/05/14 13:33:37;;;;;;;2.75;1.73;;;;;;;19.23;41.82;100357.13;;;;-54
2020/05/14 13:36:37;;;;;;;3.52;1.90;;;;;;;19.24;41.80;100359.41;;;;-54
2020/05/14 13:39:37;;;;;;;2.38;1.70;;;;;;;19.23;41.90;100354.12;;;;-56
2020/05/14 13:42:37;;;;;;;2.04;1.85;;;;;;;19.23;41.79;100349.16;;;;-53
2020/05/14 13:45:37;;;;;;;2.83;1.78;;;;;;;19.23;41.86;100347.48;;;;-56
2020/05/14 13:48:37;;;;;;;2.36;1.66;;;;;;;19.22;41.80;100341.69;;;;-57
2020/05/14 13:51:37;;;;;;;2.67;1.72;;;;;;;19.23;41.74;100345.48;;;;-56
2020/05/14 13:54:37;;;;;;;2.85;1.93;;;;;;;19.23;41.76;100340.12;;;;-59
2020/05/14 13:57:37;;;;;;;2.24;1.71;;;;;;;19.21;41.75;100339.47;;;;-59
2020/05/14 14:00:37;;;;;;;1.97;1.77;;;;;;;19.20;41.72;100341.94;;;;-59
2020/05/14 14:03:38;;;;;;;2.43;1.78;;;;;;;19.20;41.67;100341.59;;;;-60
2020/05/14 14:06:37;;;;;;;2.08;1.74;;;;;;;19.19;41.69;100345.47;;;;-60
2020/05/14 14:09:37;;;;;;;1.73;1.63;;;;;;;19.18;41.61;100336.72;;;;-59
2020/05/14 14:12:41;;;;;;;1.98;1.81;;;;;;;19.18;41.60;100332.94;;;;-61
2020/05/14 14:16:25;;;;;;;2.31;1.67;;;;;;;19.17;41.67;100329.98;;;;-59
2020/05/14 14:18:37;;;;;;;2.25;1.74;;;;;;;19.16;41.68;100324.11;;;;-59
2020/05/14 14:21:37;;;;;;;2.27;1.80;;;;;;;19.16;41.58;100321.46;;;;-59
2020/05/14 14:24:37;;;;;;;2.26;1.70;;;;;;;19.15;41.65;100327.15;;;;-59
2020/05/14 14:27:37;;;;;;;1.77;1.64;;;;;;;19.14;41.58;100322.98;;;;-60
2020/05/14 14:30:37;;;;;;;3.39;1.84;;;;;;;19.14;41.63;100320.47;;;;-60
2020/05/14 14:33:37;;;;;;;2.57;1.83;;;;;;;19.13;41.59;100318.55;;;;-60
2020/05/14 14:36:37;;;;;;;1.97;1.79;;;;;;;19.11;41.57;100319.17;;;;-60
2020/05/14 14:39:37;;;;;;;1.82;1.70;;;;;;;19.12;41.64;100317.28;;;;-59
2020/05/14 14:42:37;;;;;;;2.07;1.87;;;;;;;19.11;41.54;100313.28;;;;-59
2020/05/14 14:45:37;;;;;;;1.76;1.66;;;;;;;19.09;41.59;100310.61;;;;-60
2020/05/14 14:48:37;;;;;;;1.80;1.70;;;;;;;19.08;41.59;100311.91;;;;-59
2020/05/14 14:51:37;;;;;;;1.58;1.48;;;;;;;19.07;41.62;100311.03;;;;-60
2020/05/14 14:54:37;;;;;;;2.16;1.71;;;;;;;19.07;41.62;100304.73;;;;-59
2020/05/14 14:57:37;;;;;;;2.12;1.87;;;;;;;19.05;41.56;100307.33;;;;-59
2020/05/14 15:00:37;;;;;;;3.02;1.67;;;;;;;19.06;41.52;100309.14;;;;-59
2020/05/14 15:03:37;;;;;;;1.86;1.76;;;;;;;19.06;41.50;100311.15;;;;-59
2020/05/14 15:06:37;;;;;;;1.78;1.68;;;;;;;19.05;41.55;100311.44;;;;-59
2020/05/14 15:09:37;;;;;;;1.77;1.66;;;;;;;19.05;41.51;100309.94;;;;-59
2020/05/14 15:12:37;;;;;;;1.73;1.50;;;;;;;19.04;41.53;100302.43;;;;-60
2020/05/14 15:15:37;;;;;;;1.79;1.69;;;;;;;19.04;41.56;100309.22;;;;-60
2020/05/14 15:18:37;;;;;;;2.05;1.80;;;;;;;19.02;41.60;100317.00;;;;-60
2020/05/14 15:21:37;;;;;;;2.01;1.73;;;;;;;19.02;41.60;100325.20;;;;-60
2020/05/14 15:24:37;;;;;;;1.79;1.69;;;;;;;19.01;41.58;100327.27;;;;-51
2020/05/14 15:27:37;;;;;;;1.93;1.75;;;;;;;19.02;41.52;100325.20;;;;-51
2020/05/14 15:30:37;;;;;;;1.71;1.61;;;;;;;19.01;41.59;100328.50;;;;-51
2020/05/14 15:33:37;;;;;;;2.37;1.75;;;;;;;19.00;41.53;100323.72;;;;-55
2020/05/14 15:36:40;;;;;;;5.07;1.79;;;;;;;19.01;41.77;100320.41;;;;-53
2020/05/14 15:39:37;;;;;;;1.70;1.60;;;;;;;19.01;41.81;100325.83;;;;-54
2020/05/14 15:42:39;;;;;;;2.72;1.70;;;;;;;19.02;41.79;100327.55;;;;-51
2020/05/14 15:45:46;;;;;;;2.64;1.80;;;;;;;19.03;41.81;100324.69;;;;-53
2020/05/14 15:48:42;;;;;;;1.83;1.69;;;;;;;19.04;41.81;100331.55;;;;-53
2020/05/14 15:51:44;;;;;;;1.91;1.69;;;;;;;19.05;41.84;100332.70;;;;-52
2020/05/14 15:54:37;;;;;;;3.11;1.70;;;;;;;19.05;41.88;100336.11;;;;-54
2020/05/14 15:57:51;;;;;;;1.78;1.68;;;;;;;19.06;41.96;100341.89;;;;-53
2020/05/14 16:12:27;;;;;;;1.81;1.71;;;;;;;19.09;42.09;100338.91;;;;-53
2020/05/14 16:19:00;;;;;;;1.85;1.69;;;;;;;19.10;42.13;100338.55;;;;-51
2020/05/14 16:22:39;;;;;;;2.22;1.77;;;;;;;19.11;42.16;100338.31;;;;-53
2020/05/14 16:32:52;;;;;;;2.23;1.80;;;;;;;19.12;42.17;100341.31;;;;-50
2020/05/14 16:35:43;;;;;;;2.05;1.85;;;;;;;19.13;42.16;100341.96;;;;-51
2020/05/14 16:38:52;;;;;;;1.70;1.60;;;;;;;19.13;42.22;100344.00;;;;-53
2020/05/14 16:41:42;;;;;;;1.81;1.70;;;;;;;19.13;42.31;100342.06;;;;-56
2020/05/14 16:44:43;;;;;;;1.70;1.60;;;;;;;19.14;42.34;100342.50;;;;-55
2020/05/14 16:47:37;;;;;;;1.87;1.74;;;;;;;19.14;42.36;100338.95;;;;-57
2020/05/14 16:50:37;;;;;;;1.87;1.70;;;;;;;19.14;42.27;100339.26;;;;-56
2020/05/14 16:53:37;;;;;;;1.70;1.60;;;;;;;19.14;42.28;100335.98;;;;-53
2020/05/14 16:56:38;;;;;;;3.41;1.79;;;;;;;19.16;42.23;100335.52;;;;-53
2020/05/14 16:59:37;;;;;;;1.79;1.69;;;;;;;19.16;42.18;100332.31;;;;-54
2020/05/14 17:02:37;;;;;;;1.93;1.70;;;;;;;19.16;42.15;100340.15;;;;-52
2020/05/14 17:05:37;;;;;;;3.40;1.77;;;;;;;19.15;42.15;100336.25;;;;-52
2020/05/14 17:08:37;;;;;;;4.11;1.88;;;;;;;19.15;42.08;100334.47;;;;-52
2020/05/14 17:11:37;;;;;;;2.05;1.75;;;;;;;19.13;42.02;100331.35;;;;-51
2020/05/14 17:14:37;;;;;;;2.81;1.80;;;;;;;19.12;42.02;100329.23;;;;-53
2020/05/14 17:17:37;;;;;;;2.17;1.76;;;;;;;19.12;41.99;100330.27;;;;-52
2020/05/14 17:20:37;;;;;;;2.59;1.74;;;;;;;19.11;41.95;100327.84;;;;-52
2020/05/14 17:23:37;;;;;;;1.91;1.70;;;;;;;19.09;41.96;100327.69;;;;-51
2020/05/14 17:26:37;;;;;;;3.01;1.79;;;;;;;19.09;42.03;100330.53;;;;-51
2020/05/14 17:29:37;;;;;;;2.00;1.80;;;;;;;19.08;41.93;100322.79;;;;-51
2020/05/14 17:32:37;;;;;;;3.93;1.83;;;;;;;19.07;41.91;100321.01;;;;-51
2020/05/14 17:35:37;;;;;;;4.07;1.77;;;;;;;19.06;41.85;100322.53;;;;-51
2020/05/14 17:38:37;;;;;;;1.99;1.81;;;;;;;19.04;41.86;100319.44;;;;-52
2020/05/14 17:41:37;;;;;;;1.95;1.70;;;;;;;19.04;41.86;100323.89;;;;-51
2020/05/14 17:44:37;;;;;;;2.37;1.65;;;;;;;19.03;41.87;100328.53;;;;-52
2020/05/14 17:47:37;;;;;;;2.09;1.89;;;;;;;19.03;41.91;100326.52;;;;-52
2020/05/14 17:50:37;;;;;;;1.74;1.64;;;;;;;19.02;41.84;100321.63;;;;-51
2020/05/14 17:53:37;;;;;;;2.05;1.67;;;;;;;19.02;41.87;100324.20;;;;-51
2020/05/14 17:56:37;;;;;;;2.45;1.69;;;;;;;19.02;41.80;100323.20;;;;-52
2020/05/14 17:59:44;;;;;;;1.70;1.60;;;;;;;19.02;41.83;100331.06;;;;-51
2020/05/14 18:02:44;;;;;;;1.98;1.83;;;;;;;19.00;41.86;100334.49;;;;-51
2020/05/14 18:06:15;;;;;;;1.84;1.70;;;;;;;19.00;41.83;100338.61;;;;-51
2020/05/14 18:08:37;;;;;;;1.83;1.70;;;;;;;18.99;41.76;100334.20;;;;-52
2020/05/14 18:11:37;;;;;;;2.47;1.67;;;;;;;19.00;41.86;100338.67;;;;-53
2020/05/14 18:14:37;;;;;;;1.79;1.69;;;;;;;18.98;41.80;100341.43;;;;-51
2020/05/14 18:17:37;;;;;;;1.93;1.75;;;;;;;18.97;41.81;100342.22;;;;-52
2020/05/14 18:20:37;;;;;;;1.93;1.77;;;;;;;18.97;41.78;100337.80;;;;-51
2020/05/14 18:23:37;;;;;;;2.03;1.81;;;;;;;18.97;41.74;100338.14;;;;-52
2020/05/14 18:26:37;;;;;;;1.70;1.60;;;;;;;18.98;41.84;100347.28;;;;-52
2020/05/14 18:29:37;;;;;;;1.81;1.70;;;;;;;18.96;41.82;100347.87;;;;-52
2020/05/14 18:32:37;;;;;;;1.94;1.80;;;;;;;18.95;41.78;100348.59;;;;-53
2020/05/14 18:35:38;;;;;;;2.16;1.80;;;;;;;18.95;41.81;100348.77;;;;-52
2020/05/14 18:38:37;;;;;;;1.98;1.83;;;;;;;18.95;41.73;100352.37;;;;-52
2020/05/14 18:45:41;;;;;;;1.80;1.70;;;;;;;18.94;41.77;100357.69;;;;-52
2020/05/14 18:53:50;;;;;;;2.24;1.81;;;;;;;18.93;41.79;100366.80;;;;-52
2020/05/14 18:56:46;;;;;;;3.98;1.83;;;;;;;18.93;41.77;100369.65;;;;-52
2020/05/14 18:59:44;;;;;;;1.96;1.76;;;;;;;18.92;41.80;100373.95;;;;-52
2020/05/14 19:02:52;;;;;;;1.90;1.80;;;;;;;18.92;41.81;100378.47;;;;-52
2020/05/14 19:05:59;;;;;;;1.79;1.67;;;;;;;18.91;41.76;100378.12;;;;-52
2020/05/14 19:09:30;;;;;;;1.83;1.73;;;;;;;18.90;41.79;100379.33;;;;-51
2020/05/14 19:31:46;;;;;;;2.02;1.82;;;;;;;18.91;41.99;100384.33;;;;-54
2020/05/14 19:35:58;;;;;;;2.02;1.79;;;;;;;18.91;42.10;100379.97;;;;-54
2020/05/14 19:38:47;;;;;;;2.03;1.81;;;;;;;18.91;42.16;100380.55;;;;-56
2020/05/14 19:42:19;;;;;;;2.05;1.89;;;;;;;18.93;42.15;100383.81;;;;-56
2020/05/14 19:44:45;;;;;;;3.09;1.79;;;;;;;18.93;42.16;100385.55;;;;-53
2020/05/14 19:47:54;;;;;;;1.80;1.70;;;;;;;18.94;42.24;100389.31;;;;-53
2020/05/14 19:50:53;;;;;;;2.69;1.70;;;;;;;18.96;42.25;100387.80;;;;-52
2020/05/14 19:53:43;;;;;;;1.95;1.73;;;;;;;18.96;42.24;100384.78;;;;-53
2020/05/14 19:56:55;;;;;;;1.91;1.70;;;;;;;18.97;42.21;100389.52;;;;-53
2020/05/14 19:59:50;;;;;;;2.13;1.93;;;;;;;18.97;42.41;100385.34;;;;-56
2020/05/14 20:02:49;;;;;;;1.85;1.75;;;;;;;18.99;42.24;100383.75;;;;-50
2020/05/14 20:08:48;;;;;;;2.27;2.07;;;;;;;19.01;42.19;100389.70;;;;-51
2020/05/14 20:11:54;;;;;;;2.85;2.55;;;;;;;19.03;42.22;100388.68;;;;-51
2020/05/14 20:14:52;;;;;;;2.79;2.31;;;;;;;19.03;42.42;100388.34;;;;-49
2020/05/14 20:17:43;;;;;;;2.77;2.21;;;;;;;19.04;42.35;100388.96;;;;-49
2020/05/14 20:21:14;;;;;;;2.30;2.10;;;;;;;19.04;42.40;100386.37;;;;-50
2020/05/14 20:23:46;;;;;;;2.37;2.17;;;;;;;19.04;42.30;100379.69;;;;-62
2020/05/14 20:26:44;;;;;;;4.31;2.12;;;;;;;19.05;42.42;100381.73;;;;-51
2020/05/14 20:33:45;;;;;;;2.21;2.01;;;;;;;19.05;42.40;100380.84;;;;-52
2020/05/14 20:40:02;;;;;;;2.46;2.11;;;;;;;19.07;42.48;100380.98;;;;-51
2020/05/14 20:42:52;;;;;;;2.25;2.05;;;;;;;19.04;42.39;100382.77;;;;-53
2020/05/14 20:45:52;;;;;;;2.25;2.05;;;;;;;19.03;42.32;100381.42;;;;-50
2020/05/14 20:48:51;;;;;;;3.39;2.19;;;;;;;19.01;42.24;100381.06;;;;-52
2020/05/14 20:51:42;;;;;;;3.28;2.27;;;;;;;19.00;42.24;100382.52;;;;-52
2020/05/14 20:54:46;;;;;;;3.07;2.10;;;;;;;18.99;42.20;100385.48;;;;-53
2020/05/14 20:57:42;;;;;;;2.26;2.01;;;;;;;18.97;42.19;100384.49;;;;-53